sensor_id;sensor_type;location;lat;lon;timestamp;pressure;altitude;pressure_sealevel;temperature;humidity
20622;BME280;10470;42.670;23.354;2023-08-06T00:00:07;93649.47;;;19.48;100.00
20622;BME280;10470;42.670;23.354;2023-08-06T00:02:35;93660.06;;;19.57;100.00
20622;BME280;10470;42.670;23.354;2023-08-06T00:05:03;93657.56;;;19.94;100.00
20622;BME280;10470;42.670;23.354;2023-08-06T00:07:30;93663.75;;;20.21;100.00
20622;BME280;10470;42.670;23.354;2023-08-06T00:09:57;93658.22;;;20.21;100.00
20622;BME280;10470;42.670;23.354;2023-08-06T00:12:25;93652.09;;;19.80;100.00
20622;BME280;10470;42.670;23.354;2023-08-06T00:14:53;93690.78;;;19.80;100.00
20622;BME280;10470;42.670;23.354;2023-08-06T00:17:21;93681.88;;;19.74;100.00
20622;BME280;10470;42.670;23.354;2023-08-06T00:19:48;93641.75;;;19.81;100.00
20622;BME280;10470;42.670;23.354;2023-08-06T00:22:16;93648.63;;;20.22;100.00
20622;BME280;10470;42.670;23.354;2023-08-06T00:24:43;93655.84;;;20.25;100.00
20622;BME280;10470;42.670;23.354;2023-08-06T00:27:11;93658.53;;;20.38;100.00
20622;BME280;10470;42.670;23.354;2023-08-06T00:29:38;93660.56;;;20.17;100.00
20622;BME280;10470;42.670;23.354;2023-08-06T00:32:06;93658.16;;;20.13;100.00
20622;BME280;10470;42.670;23.354;2023-08-06T00:34:33;93649.22;;;20.07;100.00
20622;BME280;10470;42.670;23.354;2023-08-06T00:37:00;93655.44;;;20.21;100.00
20622;BME280;10470;42.670;23.354;2023-08-06T00:39:28;93653.81;;;20.25;100.00
20622;BME280;10470;42.670;23.354;2023-08-06T00:41:55;93636.63;;;20.19;100.00
20622;BME280;10470;42.670;23.354;2023-08-06T00:44:23;93637.16;;;20.39;100.00
20622;BME280;10470;42.670;23.354;2023-08-06T00:46:50;93642.44;;;20.29;100.00
20622;BME280;10470;42.670;23.354;2023-08-06T00:49:18;93629.84;;;20.07;100.00
20622;BME280;10470;42.670;23.354;2023-08-06T00:51:45;93631.16;;;20.27;100.00
20622;BME280;10470;42.670;23.354;2023-08-06T00:54:14;93634.88;;;20.29;100.00
20622;BME280;10470;42.670;23.354;2023-08-06T00:56:42;93651.84;;;20.13;100.00
20622;BME280;10470;42.670;23.354;2023-08-06T00:59:10;93632.41;;;20.26;100.00
20622;BME280;10470;42.670;23.354;2023-08-06T01:01:38;93629.53;;;20.32;100.00
20622;BME280;10470;42.670;23.354;2023-08-06T01:04:06;93629.72;;;20.13;100.00
20622;BME280;10470;42.670;23.354;2023-08-06T01:06:39;93600.88;;;20.21;100.00
20622;BME280;10470;42.670;23.354;2023-08-06T01:17:35;93612.31;;;20.25;100.00
20622;BME280;10470;42.670;23.354;2023-08-06T01:20:03;93624.25;;;19.99;100.00
20622;BME280;10470;42.670;23.354;2023-08-06T01:22:31;93605.09;;;20.22;100.00
20622;BME280;10470;42.670;23.354;2023-08-06T01:24:58;93591.81;;;20.00;100.00
20622;BME280;10470;42.670;23.354;2023-08-06T01:27:48;93586.63;;;20.17;100.00
20622;BME280;10470;42.670;23.354;2023-08-06T01:30:25;93597.63;;;20.10;100.00
20622;BME280;10470;42.670;23.354;2023-08-06T01:32:59;93594.63;;;20.07;100.00
20622;BME280;10470;42.670;23.354;2023-08-06T01:35:28;93589.59;;;19.77;100.00
20622;BME280;10470;42.670;23.354;2023-08-06T01:37:56;93585.25;;;19.55;100.00
20622;BME280;10470;42.670;23.354;2023-08-06T01:40:23;93574.66;;;19.46;100.00
20622;BME280;10470;42.670;23.354;2023-08-06T01:42:51;93560.22;;;19.40;100.00
20622;BME280;10470;42.670;23.354;2023-08-06T01:45:18;93565.16;;;19.68;100.00
20622;BME280;10470;42.670;23.354;2023-08-06T01:47:46;93558.75;;;19.94;100.00
20622;BME280;10470;42.670;23.354;2023-08-06T01:50:13;93565.47;;;19.64;100.00
20622;BME280;10470;42.670;23.354;2023-08-06T01:52:41;93564.84;;;19.58;100.00
20622;BME280;10470;42.670;23.354;2023-08-06T01:55:09;93562.66;;;19.43;100.00
20622;BME280;10470;42.670;23.354;2023-08-06T01:57:37;93560.31;;;19.48;100.00
20622;BME280;10470;42.670;23.354;2023-08-06T02:00:04;93562.16;;;19.32;100.00
20622;BME280;10470;42.670;23.354;2023-08-06T02:02:32;93547.66;;;19.18;100.00
20622;BME280;10470;42.670;23.354;2023-08-06T02:05:01;93538.63;;;19.52;100.00
20622;BME280;10470;42.670;23.354;2023-08-06T02:07:29;93541.19;;;19.50;100.00
20622;BME280;10470;42.670;23.354;2023-08-06T02:09:56;93531.94;;;19.13;100.00
20622;BME280;10470;42.670;23.354;2023-08-06T02:12:22;93530.25;;;19.44;100.00
20622;BME280;10470;42.670;23.354;2023-08-06T02:14:49;93529.09;;;19.74;100.00
20622;BME280;10470;42.670;23.354;2023-08-06T02:17:16;93543.78;;;19.34;100.00
20622;BME280;10470;42.670;23.354;2023-08-06T02:19:43;93544.25;;;19.12;100.00
20622;BME280;10470;42.670;23.354;2023-08-06T02:22:11;93548.91;;;19.17;100.00
20622;BME280;10470;42.670;23.354;2023-08-06T02:24:37;93567.28;;;19.14;100.00
20622;BME280;10470;42.670;23.354;2023-08-06T02:27:04;93562.84;;;19.11;100.00
20622;BME280;10470;42.670;23.354;2023-08-06T02:29:31;93559.44;;;19.18;100.00
20622;BME280;10470;42.670;23.354;2023-08-06T02:31:58;93551.47;;;19.15;100.00
20622;BME280;10470;42.670;23.354;2023-08-06T02:34:28;93527.84;;;19.61;100.00
20622;BME280;10470;42.670;23.354;2023-08-06T02:36:54;93549.00;;;19.72;100.00
20622;BME280;10470;42.670;23.354;2023-08-06T02:39:21;93548.34;;;19.66;100.00
20622;BME280;10470;42.670;23.354;2023-08-06T02:41:49;93562.78;;;19.38;100.00
20622;BME280;10470;42.670;23.354;2023-08-06T02:44:17;93580.81;;;19.52;100.00
20622;BME280;10470;42.670;23.354;2023-08-06T02:46:44;93580.16;;;19.59;100.00
20622;BME280;10470;42.670;23.354;2023-08-06T02:49:12;93570.00;;;19.41;100.00
20622;BME280;10470;42.670;23.354;2023-08-06T02:51:39;93563.19;;;19.76;100.00
20622;BME280;10470;42.670;23.354;2023-08-06T02:54:08;93534.28;;;19.77;100.00
20622;BME280;10470;42.670;23.354;2023-08-06T02:56:34;93539.09;;;19.98;100.00
20622;BME280;10470;42.670;23.354;2023-08-06T02:59:01;93542.03;;;20.21;100.00
20622;BME280;10470;42.670;23.354;2023-08-06T03:01:29;93531.16;;;20.23;100.00
20622;BME280;10470;42.670;23.354;2023-08-06T03:03:55;93534.91;;;20.33;100.00
20622;BME280;10470;42.670;23.354;2023-08-06T03:06:23;64830.00;;;-147.02;100.00
20622;BME280;10470;42.670;23.354;2023-08-06T03:08:49;64830.00;;;-147.02;100.00
20622;BME280;10470;42.670;23.354;2023-08-06T03:11:16;64830.00;;;-147.02;100.00
20622;BME280;10470;42.670;23.354;2023-08-06T03:13:43;64830.00;;;-147.02;100.00
20622;BME280;10470;42.670;23.354;2023-08-06T03:16:11;64830.00;;;-147.02;100.00
20622;BME280;10470;42.670;23.354;2023-08-06T03:18:39;64830.00;;;-147.02;100.00
20622;BME280;10470;42.670;23.354;2023-08-06T03:21:06;64830.00;;;-147.02;100.00
20622;BME280;10470;42.670;23.354;2023-08-06T03:23:34;64830.00;;;-147.02;100.00
20622;BME280;10470;42.670;23.354;2023-08-06T03:26:04;64830.00;;;-147.02;100.00
20622;BME280;10470;42.670;23.354;2023-08-06T03:28:31;64830.00;;;-147.02;100.00
20622;BME280;10470;42.670;23.354;2023-08-06T03:31:02;64830.00;;;-147.02;100.00
20622;BME280;10470;42.670;23.354;2023-08-06T03:33:30;64830.00;;;-147.02;100.00
20622;BME280;10470;42.670;23.354;2023-08-06T03:35:57;64830.00;;;-147.02;100.00
20622;BME280;10470;42.670;23.354;2023-08-06T03:38:24;64830.00;;;-147.02;100.00
20622;BME280;10470;42.670;23.354;2023-08-06T03:40:51;64830.00;;;-147.02;100.00
20622;BME280;10470;42.670;23.354;2023-08-06T03:43:18;64830.00;;;-147.02;100.00
20622;BME280;10470;42.670;23.354;2023-08-06T03:45:46;64830.00;;;-147.02;100.00
20622;BME280;10470;42.670;23.354;2023-08-06T03:48:12;64830.00;;;-147.02;100.00
20622;BME280;10470;42.670;23.354;2023-08-06T03:50:40;64830.00;;;-147.02;100.00
20622;BME280;10470;42.670;23.354;2023-08-06T03:53:07;64830.00;;;-147.02;100.00
20622;BME280;10470;42.670;23.354;2023-08-06T03:55:35;64830.00;;;-147.02;100.00
20622;BME280;10470;42.670;23.354;2023-08-06T03:58:02;64830.00;;;-147.02;100.00
20622;BME280;10470;42.670;23.354;2023-08-06T04:00:29;64830.00;;;-147.02;100.00
20622;BME280;10470;42.670;23.354;2023-08-06T04:02:57;64830.00;;;-147.02;100.00
20622;BME280;10470;42.670;23.354;2023-08-06T04:05:25;64830.00;;;-147.02;100.00
20622;BME280;10470;42.670;23.354;2023-08-06T04:07:52;64830.00;;;-147.02;100.00
20622;BME280;10470;42.670;23.354;2023-08-06T04:10:20;64830.00;;;-147.02;100.00
20622;BME280;10470;42.670;23.354;2023-08-06T04:12:48;64830.00;;;-147.02;100.00
20622;BME280;10470;42.670;23.354;2023-08-06T04:15:15;64830.00;;;-147.02;100.00
20622;BME280;10470;42.670;23.354;2023-08-06T04:17:43;64830.00;;;-147.02;100.00
20622;BME280;10470;42.670;23.354;2023-08-06T04:20:11;64830.00;;;-147.02;100.00
20622;BME280;10470;42.670;23.354;2023-08-06T04:22:38;64830.00;;;-147.02;100.00
20622;BME280;10470;42.670;23.354;2023-08-06T04:25:06;64830.00;;;-147.02;100.00
20622;BME280;10470;42.670;23.354;2023-08-06T04:27:33;64830.00;;;-147.02;100.00
20622;BME280;10470;42.670;23.354;2023-08-06T04:30:00;64830.00;;;-147.02;100.00
20622;BME280;10470;42.670;23.354;2023-08-06T04:32:27;64830.00;;;-147.02;100.00
20622;BME280;10470;42.670;23.354;2023-08-06T04:34:55;64830.00;;;-147.02;100.00
20622;BME280;10470;42.670;23.354;2023-08-06T04:37:22;64830.00;;;-147.02;100.00
20622;BME280;10470;42.670;23.354;2023-08-06T04:39:50;64830.00;;;-147.02;100.00
20622;BME280;10470;42.670;23.354;2023-08-06T04:42:18;64830.00;;;-147.02;100.00
20622;BME280;10470;42.670;23.354;2023-08-06T04:44:45;64830.00;;;-147.02;100.00
20622;BME280;10470;42.670;23.354;2023-08-06T04:47:12;64830.00;;;-147.02;100.00
20622;BME280;10470;42.670;23.354;2023-08-06T04:49:38;64830.00;;;-147.02;100.00
20622;BME280;10470;42.670;23.354;2023-08-06T04:52:05;64830.00;;;-147.02;100.00
20622;BME280;10470;42.670;23.354;2023-08-06T04:54:33;64830.00;;;-147.02;100.00
20622;BME280;10470;42.670;23.354;2023-08-06T04:57:00;64830.00;;;-147.02;100.00
20622;BME280;10470;42.670;23.354;2023-08-06T04:59:27;64830.00;;;-147.02;100.00
20622;BME280;10470;42.670;23.354;2023-08-06T05:01:55;64830.00;;;-147.02;100.00
20622;BME280;10470;42.670;23.354;2023-08-06T05:04:23;64830.00;;;-147.02;100.00
20622;BME280;10470;42.670;23.354;2023-08-06T05:06:50;64830.00;;;-147.02;100.00
20622;BME280;10470;42.670;23.354;2023-08-06T05:09:18;64830.00;;;-147.02;100.00
20622;BME280;10470;42.670;23.354;2023-08-06T05:11:47;64830.00;;;-147.02;100.00
20622;BME280;10470;42.670;23.354;2023-08-06T05:14:14;64830.00;;;-147.02;100.00
20622;BME280;10470;42.670;23.354;2023-08-06T05:16:41;64830.00;;;-147.02;100.00
20622;BME280;10470;42.670;23.354;2023-08-06T05:19:09;64830.00;;;-147.02;100.00
20622;BME280;10470;42.670;23.354;2023-08-06T05:21:36;64830.00;;;-147.02;100.00
20622;BME280;10470;42.670;23.354;2023-08-06T05:24:03;64830.00;;;-147.02;100.00
20622;BME280;10470;42.670;23.354;2023-08-06T05:26:30;64830.00;;;-147.02;100.00
20622;BME280;10470;42.670;23.354;2023-08-06T05:28:57;64830.00;;;-147.02;100.00
20622;BME280;10470;42.670;23.354;2023-08-06T05:31:24;64830.00;;;-147.02;100.00
20622;BME280;10470;42.670;23.354;2023-08-06T05:33:52;64830.00;;;-147.02;100.00
20622;BME280;10470;42.670;23.354;2023-08-06T05:36:19;64830.00;;;-147.02;100.00
20622;BME280;10470;42.670;23.354;2023-08-06T05:38:47;64830.00;;;-147.02;100.00
20622;BME280;10470;42.670;23.354;2023-08-06T05:41:15;64830.00;;;-147.02;100.00
20622;BME280;10470;42.670;23.354;2023-08-06T05:43:43;64830.00;;;-147.02;100.00
20622;BME280;10470;42.670;23.354;2023-08-06T05:46:09;64830.00;;;-147.02;100.00
20622;BME280;10470;42.670;23.354;2023-08-06T05:48:36;64830.00;;;-147.02;100.00
20622;BME280;10470;42.670;23.354;2023-08-06T05:51:03;64830.00;;;-147.02;100.00
20622;BME280;10470;42.670;23.354;2023-08-06T05:53:32;64830.00;;;-147.02;100.00
20622;BME280;10470;42.670;23.354;2023-08-06T05:55:58;64830.00;;;-147.02;100.00
20622;BME280;10470;42.670;23.354;2023-08-06T05:58:25;64830.00;;;-147.02;100.00
20622;BME280;10470;42.670;23.354;2023-08-06T06:00:56;64830.00;;;-147.02;100.00
20622;BME280;10470;42.670;23.354;2023-08-06T06:03:24;64830.00;;;-147.02;100.00
20622;BME280;10470;42.670;23.354;2023-08-06T06:05:51;64830.00;;;-147.02;100.00
20622;BME280;10470;42.670;23.354;2023-08-06T06:08:19;64830.00;;;-147.02;100.00
20622;BME280;10470;42.670;23.354;2023-08-06T06:10:46;64830.00;;;-147.02;100.00
20622;BME280;10470;42.670;23.354;2023-08-06T06:13:13;64830.00;;;-147.02;100.00
20622;BME280;10470;42.670;23.354;2023-08-06T06:15:41;64830.00;;;-147.02;100.00
20622;BME280;10470;42.670;23.354;2023-08-06T06:18:07;64830.00;;;-147.02;100.00
20622;BME280;10470;42.670;23.354;2023-08-06T06:20:34;64830.00;;;-147.02;100.00
20622;BME280;10470;42.670;23.354;2023-08-06T06:23:02;64830.00;;;-147.02;100.00
20622;BME280;10470;42.670;23.354;2023-08-06T06:25:30;64830.00;;;-147.02;100.00
20622;BME280;10470;42.670;23.354;2023-08-06T06:27:57;64830.00;;;-147.02;100.00
20622;BME280;10470;42.670;23.354;2023-08-06T06:30:26;64830.00;;;-147.02;100.00
20622;BME280;10470;42.670;23.354;2023-08-06T06:32:53;64830.00;;;-147.02;100.00
20622;BME280;10470;42.670;23.354;2023-08-06T06:35:20;64830.00;;;-147.02;100.00
20622;BME280;10470;42.670;23.354;2023-08-06T06:37:47;64830.00;;;-147.02;100.00
20622;BME280;10470;42.670;23.354;2023-08-06T06:40:16;64830.00;;;-147.02;100.00
20622;BME280;10470;42.670;23.354;2023-08-06T06:42:43;64830.00;;;-147.02;100.00
20622;BME280;10470;42.670;23.354;2023-08-06T06:45:10;64830.00;;;-147.02;100.00
20622;BME280;10470;42.670;23.354;2023-08-06T06:47:37;64830.00;;;-147.02;100.00
20622;BME280;10470;42.670;23.354;2023-08-06T06:50:05;64830.00;;;-147.02;100.00
20622;BME280;10470;42.670;23.354;2023-08-06T06:52:33;64830.00;;;-147.02;100.00
20622;BME280;10470;42.670;23.354;2023-08-06T06:55:00;64830.00;;;-147.02;100.00
20622;BME280;10470;42.670;23.354;2023-08-06T06:57:27;64830.00;;;-147.02;100.00
20622;BME280;10470;42.670;23.354;2023-08-06T06:59:54;64830.00;;;-147.02;100.00
20622;BME280;10470;42.670;23.354;2023-08-06T07:02:22;64830.00;;;-147.02;100.00
20622;BME280;10470;42.670;23.354;2023-08-06T07:04:50;64830.00;;;-147.02;100.00
20622;BME280;10470;42.670;23.354;2023-08-06T07:07:18;64830.00;;;-147.02;100.00
20622;BME280;10470;42.670;23.354;2023-08-06T07:09:44;64830.00;;;-147.02;100.00
20622;BME280;10470;42.670;23.354;2023-08-06T07:12:11;64830.00;;;-147.02;100.00
20622;BME280;10470;42.670;23.354;2023-08-06T07:14:38;64830.00;;;-147.02;100.00
20622;BME280;10470;42.670;23.354;2023-08-06T07:17:06;64830.00;;;-147.02;100.00
20622;BME280;10470;42.670;23.354;2023-08-06T07:19:33;64830.00;;;-147.02;100.00
20622;BME280;10470;42.670;23.354;2023-08-06T07:21:59;64830.00;;;-147.02;100.00
20622;BME280;10470;42.670;23.354;2023-08-06T07:24:26;64830.00;;;-147.02;100.00
20622;BME280;10470;42.670;23.354;2023-08-06T07:26:53;64830.00;;;-147.02;100.00
20622;BME280;10470;42.670;23.354;2023-08-06T07:29:22;64830.00;;;-147.02;100.00
20622;BME280;10470;42.670;23.354;2023-08-06T07:31:49;64830.00;;;-147.02;100.00
20622;BME280;10470;42.670;23.354;2023-08-06T07:34:18;64830.00;;;-147.02;100.00
20622;BME280;10470;42.670;23.354;2023-08-06T07:36:45;64830.00;;;-147.02;100.00
20622;BME280;10470;42.670;23.354;2023-08-06T07:39:14;64830.00;;;-147.02;100.00
20622;BME280;10470;42.670;23.354;2023-08-06T07:41:43;64830.00;;;-147.02;100.00
20622;BME280;10470;42.670;23.354;2023-08-06T07:44:10;64830.00;;;-147.02;100.00
20622;BME280;10470;42.670;23.354;2023-08-06T07:46:37;64830.00;;;-147.02;100.00
20622;BME280;10470;42.670;23.354;2023-08-06T07:49:06;64830.00;;;-147.02;100.00
20622;BME280;10470;42.670;23.354;2023-08-06T07:51:33;64830.00;;;-147.02;100.00
20622;BME280;10470;42.670;23.354;2023-08-06T07:54:01;64830.00;;;-147.02;100.00
20622;BME280;10470;42.670;23.354;2023-08-06T07:56:29;64830.00;;;-147.02;100.00
20622;BME280;10470;42.670;23.354;2023-08-06T07:58:55;64830.00;;;-147.02;100.00
20622;BME280;10470;42.670;23.354;2023-08-06T08:01:23;64830.00;;;-147.02;100.00
20622;BME280;10470;42.670;23.354;2023-08-06T08:03:50;64830.00;;;-147.02;100.00
20622;BME280;10470;42.670;23.354;2023-08-06T08:06:17;64830.00;;;-147.02;100.00
20622;BME280;10470;42.670;23.354;2023-08-06T08:08:45;64830.00;;;-147.02;100.00
20622;BME280;10470;42.670;23.354;2023-08-06T08:11:12;64830.00;;;-147.02;100.00
20622;BME280;10470;42.670;23.354;2023-08-06T08:13:39;64830.00;;;-147.02;100.00
20622;BME280;10470;42.670;23.354;2023-08-06T08:16:07;64830.00;;;-147.02;100.00
20622;BME280;10470;42.670;23.354;2023-08-06T08:18:34;64830.00;;;-147.02;100.00
20622;BME280;10470;42.670;23.354;2023-08-06T08:21:02;64830.00;;;-147.02;100.00
20622;BME280;10470;42.670;23.354;2023-08-06T08:23:29;64830.00;;;-147.02;100.00
20622;BME280;10470;42.670;23.354;2023-08-06T08:25:58;64830.00;;;-147.02;100.00
20622;BME280;10470;42.670;23.354;2023-08-06T08:28:25;64830.00;;;-147.02;100.00
20622;BME280;10470;42.670;23.354;2023-08-06T08:30:53;64830.00;;;-147.02;100.00
20622;BME280;10470;42.670;23.354;2023-08-06T08:33:22;64830.00;;;-147.02;100.00
20622;BME280;10470;42.670;23.354;2023-08-06T08:35:49;64830.00;;;-147.02;100.00
20622;BME280;10470;42.670;23.354;2023-08-06T08:38:17;64830.00;;;-147.02;100.00
20622;BME280;10470;42.670;23.354;2023-08-06T08:40:46;64830.00;;;-147.02;100.00
20622;BME280;10470;42.670;23.354;2023-08-06T08:43:20;64830.00;;;-147.02;100.00
20622;BME280;10470;42.670;23.354;2023-08-06T08:45:50;64830.00;;;-147.02;100.00
20622;BME280;10470;42.670;23.354;2023-08-06T08:48:18;64830.00;;;-147.02;100.00
20622;BME280;10470;42.670;23.354;2023-08-06T08:50:49;64830.00;;;-147.02;100.00
20622;BME280;10470;42.670;23.354;2023-08-06T08:53:17;64830.00;;;-147.02;100.00
20622;BME280;10470;42.670;23.354;2023-08-06T08:55:47;64830.00;;;-147.02;100.00
20622;BME280;10470;42.670;23.354;2023-08-06T08:58:15;64830.00;;;-147.02;100.00
20622;BME280;10470;42.670;23.354;2023-08-06T09:00:45;64830.00;;;-147.02;100.00
20622;BME280;10470;42.670;23.354;2023-08-06T09:03:13;64830.00;;;-147.02;100.00
20622;BME280;10470;42.670;23.354;2023-08-06T09:05:44;64830.00;;;-147.02;100.00
20622;BME280;10470;42.670;23.354;2023-08-06T09:08:15;64830.00;;;-147.02;100.00
20622;BME280;10470;42.670;23.354;2023-08-06T09:10:48;64830.00;;;-147.02;100.00
20622;BME280;10470;42.670;23.354;2023-08-06T09:13:16;64830.00;;;-147.02;100.00
20622;BME280;10470;42.670;23.354;2023-08-06T09:15:44;64830.00;;;-147.02;100.00
20622;BME280;10470;42.670;23.354;2023-08-06T09:18:12;64830.00;;;-147.02;100.00
20622;BME280;10470;42.670;23.354;2023-08-06T09:20:40;64830.00;;;-147.02;100.00
20622;BME280;10470;42.670;23.354;2023-08-06T09:23:09;64830.00;;;-147.02;100.00
20622;BME280;10470;42.670;23.354;2023-08-06T09:25:38;64830.00;;;-147.02;100.00
20622;BME280;10470;42.670;23.354;2023-08-06T09:28:09;64830.00;;;-147.02;100.00
20622;BME280;10470;42.670;23.354;2023-08-06T09:30:37;64830.00;;;-147.02;100.00
20622;BME280;10470;42.670;23.354;2023-08-06T09:33:09;64830.00;;;-147.02;100.00
20622;BME280;10470;42.670;23.354;2023-08-06T09:35:37;64830.00;;;-147.02;100.00
20622;BME280;10470;42.670;23.354;2023-08-06T09:38:09;64830.00;;;-147.02;100.00
20622;BME280;10470;42.670;23.354;2023-08-06T09:40:38;64830.00;;;-147.02;100.00
20622;BME280;10470;42.670;23.354;2023-08-06T09:43:06;64830.00;;;-147.02;100.00
20622;BME280;10470;42.670;23.354;2023-08-06T09:45:36;64830.00;;;-147.02;100.00
20622;BME280;10470;42.670;23.354;2023-08-06T09:48:05;64830.00;;;-147.02;100.00
20622;BME280;10470;42.670;23.354;2023-08-06T09:50:33;64830.00;;;-147.02;100.00
20622;BME280;10470;42.670;23.354;2023-08-06T09:53:06;64830.00;;;-147.02;100.00
20622;BME280;10470;42.670;23.354;2023-08-06T09:55:35;64830.00;;;-147.02;100.00
20622;BME280;10470;42.670;23.354;2023-08-06T09:58:03;64830.00;;;-147.02;100.00
20622;BME280;10470;42.670;23.354;2023-08-06T10:00:31;64830.00;;;-147.02;100.00
20622;BME280;10470;42.670;23.354;2023-08-06T10:03:01;64830.00;;;-147.02;100.00
20622;BME280;10470;42.670;23.354;2023-08-06T10:05:31;64830.00;;;-147.02;100.00
20622;BME280;10470;42.670;23.354;2023-08-06T10:08:01;64830.00;;;-147.02;100.00
20622;BME280;10470;42.670;23.354;2023-08-06T10:10:30;64830.00;;;-147.02;100.00
20622;BME280;10470;42.670;23.354;2023-08-06T10:12:59;64830.00;;;-147.02;100.00
20622;BME280;10470;42.670;23.354;2023-08-06T10:15:31;64830.00;;;-147.02;100.00
20622;BME280;10470;42.670;23.354;2023-08-06T10:17:59;64830.00;;;-147.02;100.00
20622;BME280;10470;42.670;23.354;2023-08-06T10:20:33;64830.00;;;-147.02;100.00
20622;BME280;10470;42.670;23.354;2023-08-06T10:23:05;64830.00;;;-147.02;100.00
20622;BME280;10470;42.670;23.354;2023-08-06T10:25:34;64830.00;;;-147.02;100.00
20622;BME280;10470;42.670;23.354;2023-08-06T10:28:12;64830.00;;;-147.02;100.00
20622;BME280;10470;42.670;23.354;2023-08-06T10:30:45;64830.00;;;-147.02;100.00
20622;BME280;10470;42.670;23.354;2023-08-06T10:33:13;64830.00;;;-147.02;100.00
20622;BME280;10470;42.670;23.354;2023-08-06T10:35:46;64830.00;;;-147.02;100.00
20622;BME280;10470;42.670;23.354;2023-08-06T10:38:22;64830.00;;;-147.02;100.00
20622;BME280;10470;42.670;23.354;2023-08-06T10:43:28;64830.00;;;-147.02;100.00
20622;BME280;10470;42.670;23.354;2023-08-06T10:45:56;64830.00;;;-147.02;100.00
20622;BME280;10470;42.670;23.354;2023-08-06T10:48:34;64830.00;;;-147.02;100.00
20622;BME280;10470;42.670;23.354;2023-08-06T10:51:09;64830.00;;;-147.02;100.00
20622;BME280;10470;42.670;23.354;2023-08-06T10:53:37;64830.00;;;-147.02;100.00
20622;BME280;10470;42.670;23.354;2023-08-06T10:56:12;64830.00;;;-147.02;100.00
20622;BME280;10470;42.670;23.354;2023-08-06T10:58:41;64830.00;;;-147.02;100.00
20622;BME280;10470;42.670;23.354;2023-08-06T11:01:10;64830.00;;;-147.02;100.00
20622;BME280;10470;42.670;23.354;2023-08-06T11:03:38;64830.00;;;-147.02;100.00
20622;BME280;10470;42.670;23.354;2023-08-06T11:06:07;64830.00;;;-147.02;100.00
20622;BME280;10470;42.670;23.354;2023-08-06T11:08:37;64830.00;;;-147.02;100.00
20622;BME280;10470;42.670;23.354;2023-08-06T11:11:10;64830.00;;;-147.02;100.00
20622;BME280;10470;42.670;23.354;2023-08-06T11:13:43;64830.00;;;-147.02;100.00
20622;BME280;10470;42.670;23.354;2023-08-06T11:16:14;64830.00;;;-147.02;100.00
20622;BME280;10470;42.670;23.354;2023-08-06T11:18:41;64830.00;;;-147.02;100.00
20622;BME280;10470;42.670;23.354;2023-08-06T11:21:09;64830.00;;;-147.02;100.00
20622;BME280;10470;42.670;23.354;2023-08-06T11:23:36;64830.00;;;-147.02;100.00
20622;BME280;10470;42.670;23.354;2023-08-06T11:26:06;64830.00;;;-147.02;100.00
20622;BME280;10470;42.670;23.354;2023-08-06T11:28:33;64830.00;;;-147.02;100.00
20622;BME280;10470;42.670;23.354;2023-08-06T11:31:01;64830.00;;;-147.02;100.00
20622;BME280;10470;42.670;23.354;2023-08-06T11:33:29;64830.00;;;-147.02;100.00
20622;BME280;10470;42.670;23.354;2023-08-06T11:35:58;64830.00;;;-147.02;100.00
20622;BME280;10470;42.670;23.354;2023-08-06T11:38:29;64830.00;;;-147.02;100.00
20622;BME280;10470;42.670;23.354;2023-08-06T11:40:56;64830.00;;;-147.02;100.00
20622;BME280;10470;42.670;23.354;2023-08-06T11:43:23;64830.00;;;-147.02;100.00
20622;BME280;10470;42.670;23.354;2023-08-06T11:45:51;64830.00;;;-147.02;100.00
20622;BME280;10470;42.670;23.354;2023-08-06T11:48:20;64830.00;;;-147.02;100.00
20622;BME280;10470;42.670;23.354;2023-08-06T11:50:48;64830.00;;;-147.02;100.00
20622;BME280;10470;42.670;23.354;2023-08-06T11:53:15;64830.00;;;-147.02;100.00
20622;BME280;10470;42.670;23.354;2023-08-06T11:55:43;64830.00;;;-147.02;100.00
20622;BME280;10470;42.670;23.354;2023-08-06T11:58:12;64830.00;;;-147.02;100.00
20622;BME280;10470;42.670;23.354;2023-08-06T12:00:39;64830.00;;;-147.02;100.00
20622;BME280;10470;42.670;23.354;2023-08-06T12:03:06;64830.00;;;-147.02;100.00
20622;BME280;10470;42.670;23.354;2023-08-06T12:05:35;64830.00;;;-147.02;100.00
20622;BME280;10470;42.670;23.354;2023-08-06T12:08:03;64830.00;;;-147.02;100.00
20622;BME280;10470;42.670;23.354;2023-08-06T12:10:31;64830.00;;;-147.02;100.00
20622;BME280;10470;42.670;23.354;2023-08-06T12:12:59;64830.00;;;-147.02;100.00
20622;BME280;10470;42.670;23.354;2023-08-06T12:15:26;64830.00;;;-147.02;100.00
20622;BME280;10470;42.670;23.354;2023-08-06T12:17:54;64830.00;;;-147.02;100.00
20622;BME280;10470;42.670;23.354;2023-08-06T12:20:21;64830.00;;;-147.02;100.00
20622;BME280;10470;42.670;23.354;2023-08-06T12:22:49;64830.00;;;-147.02;100.00
20622;BME280;10470;42.670;23.354;2023-08-06T12:25:16;64830.00;;;-147.02;100.00
20622;BME280;10470;42.670;23.354;2023-08-06T12:27:44;64830.00;;;-147.02;100.00
20622;BME280;10470;42.670;23.354;2023-08-06T12:30:13;64830.00;;;-147.02;100.00
20622;BME280;10470;42.670;23.354;2023-08-06T12:32:41;64830.00;;;-147.02;100.00
20622;BME280;10470;42.670;23.354;2023-08-06T12:35:09;64830.00;;;-147.02;100.00
20622;BME280;10470;42.670;23.354;2023-08-06T12:37:37;64830.00;;;-147.02;100.00
20622;BME280;10470;42.670;23.354;2023-08-06T12:40:06;64830.00;;;-147.02;100.00